Time;durP1;ratioP1;P1;durP2;ratioP2;P2;SDS_P1;SDS_P2;PMS_P1;PMS_P2;Temp;Humidity;BMP_temperature;BMP_pressure;BME280_temperature;BME280_humidity;BME280_pressure;Samples;Min_cycle;Max_cycle;Signal;HPM_P1;HPM_P2
2022/10/28 00:02:06;;;;;;;11.43;9.00;;;;;;;;;;5033490;28;20504;-61
2022/10/28 00:04:31;;;;;;;11.77;8.88;;;;;;;;;;5033519;28;20075;-61
2022/10/28 00:06:57;;;;;;;11.20;8.70;;;;;;;;;;5033655;28;20021;-61
2022/10/28 00:09:22;;;;;;;12.38;8.77;;;;;;;;;;5033480;28;20029;-61
2022/10/28 00:11:48;;;;;;;14.23;9.43;;;;;;;;;;5033587;28;20060;-61
2022/10/28 00:14:13;;;;;;;9.55;8.15;;;;;;;;;;5033207;28;20029;-61
2022/10/28 00:16:39;;;;;;;10.07;8.43;;;;;;;;;;5033205;28;20033;-61
2022/10/28 00:19:07;;;;;;;10.50;8.18;;;;;;;;;;5033140;28;20025;-61
2022/10/28 00:21:35;;;;;;;10.77;8.60;;;;;;;;;;5033029;28;20021;-61
2022/10/28 00:24:00;;;;;;;12.30;9.05;;;;;;;;;;5033375;28;20033;-61
2022/10/28 00:26:28;;;;;;;9.80;8.40;;;;;;;;;;5033066;28;20029;-61
2022/10/28 00:28:59;;;;;;;11.52;8.65;;;;;;;;;;5033080;28;20032;-61
2022/10/28 00:31:26;;;;;;;10.77;8.82;;;;;;;;;;5033026;28;20029;-61
2022/10/28 00:33:52;;;;;;;12.15;8.45;;;;;;;;;;5032965;28;20049;-61
2022/10/28 00:36:24;;;;;;;10.25;8.38;;;;;;;;;;5032987;28;20107;-61
2022/10/28 00:38:51;;;;;;;12.05;8.45;;;;;;;;;;5032801;28;20017;-61
2022/10/28 00:41:28;;;;;;;11.02;7.90;;;;;;;;;;5032853;28;20397;-61
2022/10/28 00:43:57;;;;;;;9.32;7.88;;;;;;;;;;5032745;28;20474;-62
2022/10/28 00:46:40;;;;;;;11.25;8.85;;;;;;;;;;5032778;28;20025;-62
2022/10/28 00:49:15;;;;;;;11.13;8.45;;;;;;;;;;5032642;28;20021;-62
2022/10/28 00:51:44;;;;;;;11.88;8.55;;;;;;;;;;5032766;28;20031;-61
2022/10/28 00:54:10;;;;;;;11.50;8.75;;;;;;;;;;5032456;28;20509;-61
2022/10/28 00:56:41;;;;;;;9.45;7.75;;;;;;;;;;5033206;28;20146;-63
2022/10/28 00:59:14;;;;;;;9.13;7.68;;;;;;;;;;5032845;28;20377;-61
2022/10/28 01:01:39;;;;;;;9.27;7.55;;;;;;;;;;5032574;28;20027;-61
2022/10/28 01:04:05;;;;;;;9.40;7.93;;;;;;;;;;5032521;28;20033;-61
2022/10/28 01:06:31;;;;;;;10.63;8.40;;;;;;;;;;5032475;28;20037;-64
2022/10/28 01:08:56;;;;;;;9.43;8.13;;;;;;;;;;5032535;28;20029;-63
2022/10/28 01:12:01;;;;;;;9.48;8.23;;;;;;;;;;5032790;28;20037;-61
2022/10/28 01:14:48;;;;;;;8.43;7.43;;;;;;;;;;5032460;28;20029;-61
2022/10/28 01:17:32;;;;;;;9.85;7.82;;;;;;;;;;5032228;28;20033;-61
2022/10/28 01:20:04;;;;;;;10.27;8.32;;;;;;;;;;5032649;28;20087;-61
2022/10/28 01:22:52;;;;;;;9.35;7.72;;;;;;;;;;5032301;28;20511;-61
2022/10/28 01:25:52;;;;;;;9.98;8.05;;;;;;;;;;5032197;28;20038;-61
2022/10/28 01:28:42;;;;;;;9.68;7.63;;;;;;;;;;5031032;28;20045;-62
2022/10/28 01:31:17;;;;;;;11.23;7.80;;;;;;;;;;5032219;28;20021;-61
2022/10/28 01:33:53;;;;;;;10.98;7.97;;;;;;;;;;5032285;28;20029;-61
2022/10/28 01:36:30;;;;;;;9.38;7.72;;;;;;;;;;5032175;28;20021;-61
2022/10/28 01:39:14;;;;;;;9.35;7.53;;;;;;;;;;5032249;28;20037;-65
2022/10/28 01:42:00;;;;;;;8.98;7.60;;;;;;;;;;5032174;28;20026;-61
2022/10/28 01:44:29;;;;;;;9.27;8.00;;;;;;;;;;5032085;28;20424;-65
2022/10/28 01:47:10;;;;;;;9.30;8.00;;;;;;;;;;5032467;28;20060;-61
2022/10/28 01:49:43;;;;;;;11.40;8.15;;;;;;;;;;5032140;28;20136;-61
2022/10/28 01:52:13;;;;;;;9.55;7.90;;;;;;;;;;5032181;28;20262;-61
2022/10/28 01:54:41;;;;;;;9.10;7.57;;;;;;;;;;5031824;28;20054;-63
2022/10/28 01:57:11;;;;;;;9.98;7.47;;;;;;;;;;5032305;28;20518;-62
2022/10/28 01:59:37;;;;;;;10.27;7.77;;;;;;;;;;5032079;28;20079;-62
2022/10/28 02:02:03;;;;;;;9.57;7.03;;;;;;;;;;5032250;28;20271;-62
2022/10/28 02:04:28;;;;;;;10.90;7.80;;;;;;;;;;5032244;28;20026;-62
2022/10/28 02:06:57;;;;;;;9.25;7.72;;;;;;;;;;5031974;28;20463;-62
2022/10/28 02:09:22;;;;;;;8.90;7.25;;;;;;;;;;5031895;28;20036;-62
2022/10/28 02:11:48;;;;;;;8.10;6.70;;;;;;;;;;5031917;28;20034;-61
2022/10/28 02:14:16;;;;;;;9.00;7.18;;;;;;;;;;5031842;28;20385;-62
2022/10/28 02:16:47;;;;;;;9.45;7.65;;;;;;;;;;5031842;28;20040;-62
2022/10/28 02:19:32;;;;;;;8.75;7.30;;;;;;;;;;5031919;28;20113;-62
2022/10/28 02:21:58;;;;;;;8.63;7.03;;;;;;;;;;5031877;28;20017;-62
2022/10/28 02:24:31;;;;;;;8.40;7.25;;;;;;;;;;5031681;28;20029;-62
2022/10/28 02:27:23;;;;;;;10.00;7.45;;;;;;;;;;5032066;28;20488;-62
2022/10/28 02:29:56;;;;;;;8.25;7.13;;;;;;;;;;5033377;28;20029;-62
2022/10/28 02:32:26;;;;;;;10.45;7.85;;;;;;;;;;5035353;28;20425;-62
2022/10/28 02:34:55;;;;;;;9.90;7.53;;;;;;;;;;5035160;28;20489;-61
2022/10/28 02:37:30;;;;;;;9.48;7.47;;;;;;;;;;5035200;28;20310;-63
2022/10/28 02:40:03;;;;;;;7.60;6.80;;;;;;;;;;5033851;28;20044;-62
2022/10/28 02:42:47;;;;;;;9.80;7.20;;;;;;;;;;5035063;28;20025;-62
2022/10/28 02:45:21;;;;;;;8.32;6.95;;;;;;;;;;5034989;28;20030;-62
2022/10/28 02:48:13;;;;;;;7.80;7.00;;;;;;;;;;5035298;28;20036;-61
2022/10/28 02:50:45;;;;;;;9.48;7.15;;;;;;;;;;5035248;28;20100;-61
2022/10/28 02:53:18;;;;;;;9.07;7.68;;;;;;;;;;5034723;28;20042;-62
2022/10/28 02:55:48;;;;;;;9.07;6.95;;;;;;;;;;5034862;28;20040;-62
2022/10/28 02:58:14;;;;;;;8.45;7.40;;;;;;;;;;5035055;28;20017;-62
2022/10/28 03:00:43;;;;;;;9.85;7.10;;;;;;;;;;5034708;28;20367;-62
2022/10/28 03:03:09;;;;;;;9.83;7.83;;;;;;;;;;5034709;28;20022;-62
2022/10/28 03:05:34;;;;;;;8.23;7.25;;;;;;;;;;5034870;28;20034;-62
2022/10/28 03:08:00;;;;;;;8.52;6.82;;;;;;;;;;5034564;28;20389;-62
2022/10/28 03:10:25;;;;;;;8.60;7.10;;;;;;;;;;5034587;28;20029;-61
2022/10/28 03:12:51;;;;;;;9.15;7.65;;;;;;;;;;5033256;28;20036;-61
2022/10/28 03:15:16;;;;;;;8.80;6.75;;;;;;;;;;5034766;28;20029;-61
2022/10/28 03:17:42;;;;;;;7.60;6.70;;;;;;;;;;5034508;28;20075;-62
2022/10/28 03:20:08;;;;;;;11.27;7.45;;;;;;;;;;5034374;28;20485;-61
2022/10/28 03:22:34;;;;;;;7.75;6.40;;;;;;;;;;5034348;28;20030;-62
2022/10/28 03:24:59;;;;;;;9.18;7.28;;;;;;;;;;5034161;28;20069;-61
2022/10/28 03:27:25;;;;;;;8.50;7.32;;;;;;;;;;5034224;28;20029;-61
2022/10/28 03:29:50;;;;;;;10.45;7.50;;;;;;;;;;5034483;28;20059;-61
2022/10/28 03:32:16;;;;;;;9.25;6.72;;;;;;;;;;5034153;28;20029;-61
2022/10/28 03:34:41;;;;;;;8.50;6.57;;;;;;;;;;5034071;28;20113;-61
2022/10/28 03:37:07;;;;;;;8.68;7.07;;;;;;;;;;5034352;28;20053;-62
2022/10/28 03:39:33;;;;;;;8.75;7.45;;;;;;;;;;5033586;28;20026;-61
2022/10/28 03:41:58;;;;;;;8.07;6.97;;;;;;;;;;5034074;28;20366;-61
2022/10/28 03:44:23;;;;;;;7.68;6.88;;;;;;;;;;5033931;28;20280;-61
2022/10/28 03:46:49;;;;;;;8.73;7.10;;;;;;;;;;5034121;28;20029;-61
2022/10/28 03:49:15;;;;;;;7.88;6.90;;;;;;;;;;5033858;28;20623;-61
2022/10/28 03:51:40;;;;;;;8.52;7.38;;;;;;;;;;5034052;28;20425;-62
2022/10/28 03:54:05;;;;;;;7.43;6.35;;;;;;;;;;5033443;28;20056;-61
2022/10/28 03:56:31;;;;;;;7.57;6.82;;;;;;;;;;5033709;28;20029;-61
2022/10/28 03:58:56;;;;;;;7.93;6.65;;;;;;;;;;5033564;28;20576;-61
2022/10/28 04:01:22;;;;;;;7.00;6.30;;;;;;;;;;5033523;28;20040;-61
2022/10/28 04:03:47;;;;;;;8.13;6.40;;;;;;;;;;5033697;28;20112;-61
2022/10/28 04:06:13;;;;;;;9.50;6.88;;;;;;;;;;5033449;28;20029;-62
2022/10/28 04:08:38;;;;;;;7.80;6.63;;;;;;;;;;5033465;28;20026;-66
2022/10/28 04:11:04;;;;;;;8.18;6.88;;;;;;;;;;5033375;28;20044;-65
2022/10/28 04:13:30;;;;;;;7.38;6.28;;;;;;;;;;5032142;28;20026;-62
2022/10/28 04:15:55;;;;;;;8.13;6.47;;;;;;;;;;5032060;28;20056;-62
2022/10/28 04:18:21;;;;;;;7.32;6.07;;;;;;;;;;5032008;28;20389;-62
2022/10/28 04:20:46;;;;;;;7.88;6.43;;;;;;;;;;5033141;28;20087;-61
2022/10/28 04:23:14;;;;;;;7.68;6.65;;;;;;;;;;5033447;28;20021;-62
2022/10/28 04:25:40;;;;;;;8.48;6.47;;;;;;;;;;5033407;28;20021;-61
2022/10/28 04:28:06;;;;;;;7.38;6.45;;;;;;;;;;5033075;28;20113;-61
2022/10/28 04:30:31;;;;;;;7.35;6.35;;;;;;;;;;5033386;28;20037;-61
2022/10/28 04:32:57;;;;;;;8.07;6.68;;;;;;;;;;5033133;28;20025;-62
2022/10/28 04:35:23;;;;;;;7.25;6.40;;;;;;;;;;5033224;28;20025;-61
2022/10/28 04:37:48;;;;;;;7.03;6.30;;;;;;;;;;5033187;28;20029;-62
2022/10/28 04:40:14;;;;;;;7.40;5.90;;;;;;;;;;5032837;28;20439;-61
2022/10/28 04:42:39;;;;;;;6.78;6.07;;;;;;;;;;5033118;28;20075;-61
2022/10/28 04:45:06;;;;;;;7.55;6.32;;;;;;;;;;5032954;28;20472;-61
2022/10/28 04:47:31;;;;;;;7.03;6.28;;;;;;;;;;5032959;28;20033;-62
2022/10/28 04:49:57;;;;;;;6.43;5.75;;;;;;;;;;5032966;28;20036;-62
2022/10/28 04:52:22;;;;;;;7.38;6.00;;;;;;;;;;5032121;28;20014;-61
2022/10/28 04:54:48;;;;;;;7.05;6.35;;;;;;;;;;5032523;28;20049;-61
2022/10/28 04:57:13;;;;;;;7.45;6.25;;;;;;;;;;5032603;28;20044;-64
2022/10/28 04:59:39;;;;;;;8.23;6.28;;;;;;;;;;5032683;28;20033;-62
2022/10/28 05:02:05;;;;;;;6.35;5.72;;;;;;;;;;5032512;28;20507;-62
2022/10/28 05:04:30;;;;;;;8.07;6.70;;;;;;;;;;5032421;28;20061;-61
2022/10/28 05:06:55;;;;;;;7.53;5.93;;;;;;;;;;5032235;28;20029;-62
2022/10/28 05:09:21;;;;;;;7.13;5.68;;;;;;;;;;5032464;28;20025;-60
2022/10/28 05:11:47;;;;;;;7.15;6.03;;;;;;;;;;5031142;28;20022;-63
2022/10/28 05:14:12;;;;;;;6.40;5.80;;;;;;;;;;5032652;28;20030;-60
2022/10/28 05:16:38;;;;;;;6.70;5.82;;;;;;;;;;5032452;28;20470;-60
2022/10/28 05:19:03;;;;;;;7.55;6.25;;;;;;;;;;5032642;28;20033;-60
2022/10/28 05:21:29;;;;;;;7.57;6.18;;;;;;;;;;5032310;28;20025;-61
2022/10/28 05:23:54;;;;;;;6.85;5.88;;;;;;;;;;5030962;28;20026;-61
2022/10/28 05:26:20;;;;;;;6.70;6.00;;;;;;;;;;5032161;28;20381;-63
2022/10/28 05:28:49;;;;;;;7.60;6.20;;;;;;;;;;5032105;28;20072;-62
2022/10/28 05:31:15;;;;;;;7.50;6.22;;;;;;;;;;5032118;28;20044;-60
2022/10/28 05:33:40;;;;;;;6.95;6.10;;;;;;;;;;5030856;28;20025;-61
2022/10/28 05:36:07;;;;;;;6.85;5.75;;;;;;;;;;5032517;28;20036;-61
2022/10/28 05:38:33;;;;;;;6.05;5.45;;;;;;;;;;5032097;28;20025;-62
2022/10/28 05:40:58;;;;;;;6.20;5.60;;;;;;;;;;5032608;28;20350;-65
2022/10/28 05:43:24;;;;;;;6.78;5.65;;;;;;;;;;5032014;28;20225;-67
2022/10/28 05:45:54;;;;;;;7.00;6.05;;;;;;;;;;5031834;28;20022;-65
2022/10/28 05:48:19;;;;;;;6.78;5.93;;;;;;;;;;5034557;28;20029;-65
2022/10/28 05:50:45;;;;;;;8.25;5.78;;;;;;;;;;5032319;28;20036;-64
2022/10/28 05:53:10;;;;;;;8.48;5.82;;;;;;;;;;5032115;28;20041;-67
2022/10/28 05:55:36;;;;;;;6.13;5.45;;;;;;;;;;5032528;28;20033;-66
2022/10/28 05:58:02;;;;;;;6.75;6.00;;;;;;;;;;5032697;28;20056;-66
2022/10/28 06:00:28;;;;;;;6.13;5.47;;;;;;;;;;5033166;28;20373;-70
2022/10/28 06:03:08;;;;;;;7.10;5.90;;;;;;;;;;5033110;28;20026;-67
2022/10/28 06:05:34;;;;;;;7.00;6.05;;;;;;;;;;5035709;28;20029;-67
2022/10/28 06:08:00;;;;;;;8.02;6.07;;;;;;;;;;5036018;28;20151;-67
2022/10/28 06:10:25;;;;;;;6.43;5.68;;;;;;;;;;5034604;28;20108;-67
2022/10/28 06:12:54;;;;;;;6.63;5.93;;;;;;;;;;5035492;28;20033;-67
2022/10/28 06:15:19;;;;;;;6.13;5.50;;;;;;;;;;5034167;28;20053;-67
2022/10/28 06:17:48;;;;;;;6.47;5.28;;;;;;;;;;5035277;28;20061;-67
2022/10/28 06:20:13;;;;;;;6.18;5.53;;;;;;;;;;5035263;28;20195;-67
2022/10/28 06:22:47;;;;;;;6.55;5.68;;;;;;;;;;5034371;28;20222;-67
2022/10/28 06:25:12;;;;;;;6.68;5.88;;;;;;;;;;5035525;28;20022;-67
2022/10/28 06:27:38;;;;;;;7.32;5.82;;;;;;;;;;5035717;28;20099;-67
2022/10/28 06:30:04;;;;;;;6.32;5.72;;;;;;;;;;5035861;28;20473;-67
2022/10/28 06:32:29;;;;;;;6.30;5.70;;;;;;;;;;5035361;28;20041;-67
2022/10/28 06:34:55;;;;;;;6.40;5.80;;;;;;;;;;5035483;28;20121;-67
2022/10/28 06:37:20;;;;;;;7.82;6.07;;;;;;;;;;5028315;28;20167;-68
2022/10/28 06:39:50;;;;;;;6.25;5.65;;;;;;;;;;5029822;28;20052;-69
2022/10/28 06:42:16;;;;;;;6.90;5.60;;;;;;;;;;5029456;28;20018;-69
2022/10/28 06:44:42;;;;;;;6.38;5.38;;;;;;;;;;5024985;28;20041;-68
2022/10/28 06:47:07;;;;;;;6.45;5.70;;;;;;;;;;5029102;28;20433;-68
2022/10/28 06:49:33;;;;;;;6.28;5.63;;;;;;;;;;5029404;28;20022;-68
2022/10/28 06:51:58;;;;;;;6.13;5.53;;;;;;;;;;5028838;28;20029;-69
2022/10/28 06:54:24;;;;;;;6.32;5.68;;;;;;;;;;5031054;28;20049;-68
2022/10/28 06:56:49;;;;;;;5.90;5.07;;;;;;;;;;5027701;28;20072;-68
2022/10/28 06:59:15;;;;;;;5.70;5.10;;;;;;;;;;5030285;28;20104;-68
2022/10/28 07:01:40;;;;;;;6.57;5.40;;;;;;;;;;5028654;28;20477;-68
2022/10/28 07:04:12;;;;;;;6.72;6.00;;;;;;;;;;5029096;28;20104;-68
2022/10/28 07:06:39;;;;;;;6.55;5.80;;;;;;;;;;5027534;28;20548;-68
2022/10/28 07:09:06;;;;;;;6.53;5.80;;;;;;;;;;5029042;28;20028;-68
2022/10/28 07:11:31;;;;;;;5.72;5.07;;;;;;;;;;5028957;28;20031;-68
2022/10/28 07:13:57;;;;;;;7.95;5.65;;;;;;;;;;5030469;28;20083;-68
2022/10/28 07:16:23;;;;;;;7.15;5.53;;;;;;;;;;5027782;28;20037;-69
2022/10/28 07:18:48;;;;;;;6.50;5.85;;;;;;;;;;5030439;28;20112;-67
2022/10/28 07:21:14;;;;;;;6.25;5.30;;;;;;;;;;5027616;28;20163;-68
2022/10/28 07:23:39;;;;;;;6.20;5.47;;;;;;;;;;5028254;28;20045;-67
2022/10/28 07:26:08;;;;;;;5.85;5.20;;;;;;;;;;5032439;28;20029;-66
2022/10/28 07:28:34;;;;;;;6.00;5.10;;;;;;;;;;5033502;28;20033;-67
2022/10/28 07:31:01;;;;;;;7.95;5.40;;;;;;;;;;5034569;28;20030;-66
2022/10/28 07:33:27;;;;;;;5.95;5.43;;;;;;;;;;5034110;28;20057;-66
2022/10/28 07:35:52;;;;;;;6.15;5.43;;;;;;;;;;5029663;28;20127;-65
2022/10/28 07:38:18;;;;;;;6.95;5.20;;;;;;;;;;5033625;28;20021;-63
2022/10/28 07:40:43;;;;;;;7.85;5.97;;;;;;;;;;5034199;28;20025;-66
2022/10/28 07:43:09;;;;;;;6.65;5.78;;;;;;;;;;5034090;28;20413;-66
2022/10/28 07:45:35;;;;;;;6.70;5.65;;;;;;;;;;5018787;28;20040;-68
2022/10/28 07:48:02;;;;;;;6.25;5.65;;;;;;;;;;5020932;28;20485;-65
2022/10/28 07:50:27;;;;;;;6.88;5.97;;;;;;;;;;5033292;28;20539;-66
2022/10/28 07:52:53;;;;;;;6.47;5.72;;;;;;;;;;5032022;28;20074;-68
2022/10/28 07:55:20;;;;;;;8.65;6.32;;;;;;;;;;5032436;28;20105;-65
2022/10/28 07:57:46;;;;;;;9.73;5.80;;;;;;;;;;5032085;28;20029;-64
2022/10/28 08:00:12;;;;;;;7.43;6.00;;;;;;;;;;5032433;28;20029;-66
2022/10/28 08:02:39;;;;;;;7.20;5.72;;;;;;;;;;5032067;28;20670;-64
2022/10/28 08:05:05;;;;;;;6.75;5.72;;;;;;;;;;5031803;28;20075;-64
2022/10/28 08:07:30;;;;;;;6.57;5.65;;;;;;;;;;5031986;28;20500;-65
2022/10/28 08:09:57;;;;;;;10.15;5.97;;;;;;;;;;5031878;28;20065;-64
2022/10/28 08:12:23;;;;;;;6.43;5.80;;;;;;;;;;5032632;28;20100;-66
2022/10/28 08:14:48;;;;;;;8.32;6.05;;;;;;;;;;5031266;28;20503;-65
2022/10/28 08:17:14;;;;;;;6.95;5.82;;;;;;;;;;5032059;28;20037;-65
2022/10/28 08:19:39;;;;;;;6.82;6.13;;;;;;;;;;5031720;28;20028;-65
2022/10/28 08:22:06;;;;;;;7.63;6.35;;;;;;;;;;5031707;28;20033;-66
2022/10/28 08:24:31;;;;;;;6.80;5.57;;;;;;;;;;5031912;28;20060;-64
2022/10/28 08:26:57;;;;;;;7.28;6.07;;;;;;;;;;5031707;28;20029;-64
2022/10/28 08:29:23;;;;;;;8.02;6.40;;;;;;;;;;5063767;28;20025;-66
2022/10/28 08:31:48;;;;;;;8.38;5.57;;;;;;;;;;5063310;28;20064;-65
2022/10/28 08:34:14;;;;;;;7.72;6.15;;;;;;;;;;5032054;28;20041;-65
2022/10/28 08:36:46;;;;;;;8.27;6.15;;;;;;;;;;5032339;28;20026;-64
2022/10/28 08:39:12;;;;;;;8.27;6.35;;;;;;;;;;5034818;28;20044;-64
2022/10/28 08:41:50;;;;;;;7.38;5.90;;;;;;;;;;5033458;28;20025;-64
2022/10/28 08:44:34;;;;;;;7.32;6.07;;;;;;;;;;5027216;28;20048;-64
2022/10/28 08:47:25;;;;;;;7.35;5.88;;;;;;;;;;5029734;28;20029;-67
2022/10/28 08:49:56;;;;;;;6.35;5.68;;;;;;;;;;5032184;28;20036;-68
2022/10/28 08:52:38;;;;;;;7.75;5.90;;;;;;;;;;5033484;28;20033;-66
2022/10/28 08:55:11;;;;;;;6.90;5.78;;;;;;;;;;5026972;28;20362;-66
2022/10/28 08:58:08;;;;;;;6.55;5.40;;;;;;;;;;5031272;28;20049;-64
2022/10/28 09:00:39;;;;;;;6.65;5.95;;;;;;;;;;5033259;28;20515;-64
2022/10/28 09:03:16;;;;;;;6.97;5.65;;;;;;;;;;5031160;28;20812;-66
2022/10/28 09:05:46;;;;;;;7.25;5.65;;;;;;;;;;5032606;28;20033;-65
2022/10/28 09:08:27;;;;;;;6.82;5.88;;;;;;;;;;5029536;28;20538;-65
2022/10/28 09:11:07;;;;;;;7.63;5.93;;;;;;;;;;5014386;28;20030;-64
2022/10/28 09:13:59;;;;;;;7.00;5.65;;;;;;;;;;5013140;28;20394;-64
2022/10/28 09:16:47;;;;;;;8.25;6.25;;;;;;;;;;5012779;28;20040;-65
2022/10/28 09:19:42;;;;;;;6.75;5.88;;;;;;;;;;5014765;28;20501;-66
2022/10/28 09:22:16;;;;;;;6.72;6.03;;;;;;;;;;5026650;28;20109;-63
2022/10/28 09:24:55;;;;;;;10.02;5.90;;;;;;;;;;5030662;28;20128;-66
2022/10/28 09:27:54;;;;;;;7.28;6.00;;;;;;;;;;5030903;28;20030;-64
2022/10/28 09:30:46;;;;;;;9.57;7.10;;;;;;;;;;5030708;28;20409;-64
2022/10/28 09:33:54;;;;;;;9.43;6.30;;;;;;;;;;5026561;28;20125;-65
2022/10/28 09:36:27;;;;;;;7.32;5.97;;;;;;;;;;5018829;28;20041;-64
2022/10/28 09:38:56;;;;;;;7.82;6.72;;;;;;;;;;5013328;28;20022;-65
2022/10/28 09:41:35;;;;;;;11.60;6.47;;;;;;;;;;5013490;28;20038;-64
2022/10/28 09:44:22;;;;;;;9.13;6.50;;;;;;;;;;5015117;28;20030;-65
2022/10/28 09:46:52;;;;;;;8.88;6.68;;;;;;;;;;5031505;28;20026;-65
2022/10/28 09:49:20;;;;;;;;;;;;;;;;;;5035285;28;20021;-66
2022/10/28 09:52:20;;;;;;;7.55;6.13;;;;;;;;;;5034365;28;19923;-65
2022/10/28 09:54:51;;;;;;;8.97;5.73;;;;;;;;;;5030208;28;20532;-64
2022/10/28 09:57:17;;;;;;;7.90;5.88;;;;;;;;;;5034271;28;20326;-65
2022/10/28 09:59:43;;;;;;;7.00;6.30;;;;;;;;;;5034344;28;20053;-66
2022/10/28 10:02:24;;;;;;;7.20;6.22;;;;;;;;;;5034605;28;20076;-65
2022/10/28 10:04:49;;;;;;;9.88;6.40;;;;;;;;;;5034088;28;20037;-65
2022/10/28 10:07:33;;;;;;;7.75;6.45;;;;;;;;;;5034204;28;20038;-66
2022/10/28 10:10:02;;;;;;;7.60;6.18;;;;;;;;;;5034598;28;20021;-67
2022/10/28 10:12:30;;;;;;;6.57;5.88;;;;;;;;;;5034066;28;20458;-65
2022/10/28 10:14:58;;;;;;;7.88;6.25;;;;;;;;;;5033980;28;20037;-65
2022/10/28 10:17:31;;;;;;;8.93;6.75;;;;;;;;;;5033960;28;20037;-64
2022/10/28 10:20:05;;;;;;;9.18;6.88;;;;;;;;;;5053588;28;20022;-62
2022/10/28 10:22:33;;;;;;;10.05;7.00;;;;;;;;;;5033317;28;20033;-66
2022/10/28 10:24:59;;;;;;;10.00;7.38;;;;;;;;;;5033758;28;20033;-65
2022/10/28 10:27:26;;;;;;;7.15;5.82;;;;;;;;;;5034045;28;20048;-64
2022/10/28 10:29:53;;;;;;;8.05;6.65;;;;;;;;;;5033984;28;20363;-65
2022/10/28 10:32:30;;;;;;;9.27;6.75;;;;;;;;;;5034066;28;20112;-67
2022/10/28 10:35:28;;;;;;;16.70;6.28;;;;;;;;;;5033604;28;20030;-64
2022/10/28 10:37:57;;;;;;;7.63;6.15;;;;;;;;;;5031771;28;20505;-64
2022/10/28 10:40:47;;;;;;;9.95;6.90;;;;;;;;;;5018830;28;20051;-64
2022/10/28 10:43:34;;;;;;;8.00;5.83;;;;;;;;;;5040822;28;20038;-65
2022/10/28 10:46:16;;;;;;;9.55;6.28;;;;;;;;;;5013106;28;20036;-64
2022/10/28 10:48:44;;;;;;;8.27;6.43;;;;;;;;;;5013716;28;20026;-64
2022/10/28 10:51:25;;;;;;;8.35;7.10;;;;;;;;;;5012432;28;20088;-63
2022/10/28 10:53:56;;;;;;;10.02;6.85;;;;;;;;;;5012824;28;20082;-64
2022/10/28 10:56:28;;;;;;;9.23;7.00;;;;;;;;;;5013993;28;20450;-65
2022/10/28 10:58:57;;;;;;;7.55;6.40;;;;;;;;;;5022669;28;20033;-64
2022/10/28 11:01:26;;;;;;;9.82;7.60;;;;;;;;;;5030878;28;20068;-67
2022/10/28 11:03:54;;;;;;;12.02;8.57;;;;;;;;;;5033193;28;20025;-64
2022/10/28 11:06:26;;;;;;;13.98;9.82;;;;;;;;;;5032907;28;20021;-66
2022/10/28 11:09:04;;;;;;;14.02;9.63;;;;;;;;;;5033155;28;20033;-65
2022/10/28 11:11:40;;;;;;;14.48;10.55;;;;;;;;;;5033082;28;20032;-66
2022/10/28 11:14:08;;;;;;;14.82;8.73;;;;;;;;;;5033248;28;20363;-63
2022/10/28 11:17:01;;;;;;;12.63;9.10;;;;;;;;;;5032793;28;20025;-64
2022/10/28 11:19:34;;;;;;;13.32;9.07;;;;;;;;;;5053253;28;20381;-69
2022/10/28 11:22:20;;;;;;;14.48;9.85;;;;;;;;;;5013100;28;20025;-65
2022/10/28 11:25:12;;;;;;;13.68;9.48;;;;;;;;;;5023563;28;20109;-63
2022/10/28 11:28:04;;;;;;;14.40;10.07;;;;;;;;;;5032755;28;20068;-63
2022/10/28 11:31:24;;;;;;;11.70;9.27;;;;;;;;;;5031012;28;20050;-65
2022/10/28 11:34:05;;;;;;;15.30;10.85;;;;;;;;;;5030046;28;20041;-63
2022/10/28 11:36:50;;;;;;;17.27;10.80;;;;;;;;;;5013057;28;20038;-63
2022/10/28 11:39:15;;;;;;;15.82;10.98;;;;;;;;;;5012640;28;20737;-64
2022/10/28 11:41:49;;;;;;;19.23;12.35;;;;;;;;;;5012630;28;20112;-66
2022/10/28 11:44:26;;;;;;;20.38;12.75;;;;;;;;;;5012478;28;20056;-67
2022/10/28 11:46:55;;;;;;;18.45;12.23;;;;;;;;;;5012588;28;20037;-66
2022/10/28 11:49:51;;;;;;;19.08;12.40;;;;;;;;;;5012583;28;20026;-67
2022/10/28 11:52:27;;;;;;;16.73;11.82;;;;;;;;;;5012338;28;20040;-65
2022/10/28 11:55:17;;;;;;;19.05;13.43;;;;;;;;;;5012376;28;20130;-64
2022/10/28 11:58:01;;;;;;;;;;;;;;;;;;5012982;28;20084;-64
2022/10/28 12:00:49;;;;;;;16.55;11.52;;;;;;;;;;5011886;28;19920;-67
2022/10/28 12:03:40;;;;;;;18.95;12.55;;;;;;;;;;5019276;28;20025;-69
2022/10/28 12:06:41;;;;;;;17.75;12.27;;;;;;;;;;5011083;28;20790;-63
2022/10/28 12:09:11;;;;;;;21.05;12.63;;;;;;;;;;5015268;28;20034;-70
2022/10/28 12:12:02;;;;;;;18.90;12.40;;;;;;;;;;5045969;28;20109;-65
2022/10/28 12:14:52;;;;;;;19.85;13.23;;;;;;;;;;5045409;28;20034;-65
2022/10/28 12:17:45;;;;;;;22.85;13.60;;;;;;;;;;5011105;28;20041;-63
2022/10/28 12:20:30;;;;;;;23.33;13.80;;;;;;;;;;5017565;28;20140;-65
2022/10/28 12:23:04;;;;;;;20.30;12.93;;;;;;;;;;5053009;28;20397;-64
2022/10/28 12:25:35;;;;;;;31.45;13.07;;;;;;;;;;5029379;28;20112;-61
2022/10/28 12:28:05;;;;;;;19.30;13.13;;;;;;;;;;5029718;28;20026;-62
2022/10/28 12:30:33;;;;;;;;;;;;;;;;;;5028906;28;20065;-61
2022/10/28 12:33:23;;;;;;;20.23;12.90;;;;;;;;;;5029118;28;19917;-63
2022/10/28 12:35:56;;;;;;;17.58;12.57;;;;;;;;;;5028814;28;20596;-63
2022/10/28 12:38:21;;;;;;;22.95;14.25;;;;;;;;;;5029737;28;20041;-65
2022/10/28 12:40:58;;;;;;;19.60;13.88;;;;;;;;;;5029722;28;20048;-63
2022/10/28 12:43:32;;;;;;;22.20;13.60;;;;;;;;;;5029354;28;20033;-66
2022/10/28 12:45:57;;;;;;;23.10;14.20;;;;;;;;;;5029511;28;20461;-66
2022/10/28 12:48:34;;;;;;;19.45;13.40;;;;;;;;;;5027512;28;20495;-63
2022/10/28 12:51:09;;;;;;;20.27;13.68;;;;;;;;;;5029399;28;20136;-62
2022/10/28 12:54:09;;;;;;;18.42;13.48;;;;;;;;;;5030471;28;20056;-64
2022/10/28 12:56:47;;;;;;;19.75;13.10;;;;;;;;;;5030343;28;20033;-62
2022/10/28 12:59:18;;;;;;;21.02;15.27;;;;;;;;;;5031842;28;20419;-65
2022/10/28 13:01:47;;;;;;;25.40;14.57;;;;;;;;;;5030050;28;20036;-62
2022/10/28 13:04:13;;;;;;;34.42;15.88;;;;;;;;;;5030953;28;20079;-66
2022/10/28 13:07:01;;;;;;;30.95;15.40;;;;;;;;;;5031435;28;20037;-68
2022/10/28 13:09:49;;;;;;;28.48;14.65;;;;;;;;;;5026311;28;20084;-65
2022/10/28 13:12:42;;;;;;;23.38;13.85;;;;;;;;;;5010839;28;20042;-67
2022/10/28 13:15:48;;;;;;;26.67;15.45;;;;;;;;;;5011448;28;20052;-66
2022/10/28 13:18:33;;;;;;;22.05;14.52;;;;;;;;;;5011404;28;20034;-64
2022/10/28 13:21:23;;;;;;;28.23;15.77;;;;;;;;;;5011461;28;20033;-66
2022/10/28 13:24:00;;;;;;;26.88;16.17;;;;;;;;;;5011142;28;20033;-69
2022/10/28 13:26:31;;;;;;;23.05;14.93;;;;;;;;;;5011130;28;20026;-67
2022/10/28 13:29:01;;;;;;;31.70;16.20;;;;;;;;;;5011158;28;20053;-69
2022/10/28 13:31:38;;;;;;;24.40;15.77;;;;;;;;;;5011028;28;20092;-66
2022/10/28 13:34:04;;;;;;;23.90;14.93;;;;;;;;;;5010927;28;20060;-67
2022/10/28 13:36:35;;;;;;;25.10;16.55;;;;;;;;;;5011410;28;20673;-66
2022/10/28 13:39:04;;;;;;;25.05;14.95;;;;;;;;;;5042008;28;20022;-68
2022/10/28 13:41:39;;;;;;;20.35;15.13;;;;;;;;;;5011686;28;20596;-66
2022/10/28 13:44:07;;;;;;;25.00;15.68;;;;;;;;;;5011279;28;20040;-67
2022/10/28 13:46:57;;;;;;;20.77;15.00;;;;;;;;;;5011196;28;20474;-65
2022/10/28 13:49:36;;;;;;;23.15;14.95;;;;;;;;;;5042867;28;20029;-66
2022/10/28 13:52:12;;;;;;;21.70;15.38;;;;;;;;;;5010886;28;20037;-65
2022/10/28 13:54:43;;;;;;;23.80;15.82;;;;;;;;;;5010821;28;20054;-65
2022/10/28 13:57:32;;;;;;;22.83;15.25;;;;;;;;;;5010847;28;20077;-65
2022/10/28 14:00:00;;;;;;;23.63;15.13;;;;;;;;;;5016916;28;20025;-65
2022/10/28 14:02:37;;;;;;;22.80;15.65;;;;;;;;;;5017027;28;20037;-66
2022/10/28 14:05:11;;;;;;;22.67;15.50;;;;;;;;;;5029414;28;20041;-66
2022/10/28 14:07:58;;;;;;;23.73;16.60;;;;;;;;;;5028292;28;20051;-66
2022/10/28 14:10:27;;;;;;;25.20;15.48;;;;;;;;;;5029410;28;20091;-66
2022/10/28 14:13:04;;;;;;;23.35;16.80;;;;;;;;;;5017350;28;20038;-65
2022/10/28 14:15:36;;;;;;;23.55;16.80;;;;;;;;;;5021789;28;20052;-66
2022/10/28 14:18:05;;;;;;;23.25;15.60;;;;;;;;;;5015840;28;20032;-65
2022/10/28 14:20:38;;;;;;;26.38;16.77;;;;;;;;;;5015726;28;20053;-65
2022/10/28 14:23:21;;;;;;;26.55;17.30;;;;;;;;;;5010150;28;20520;-66
2022/10/28 14:25:50;;;;;;;26.17;17.05;;;;;;;;;;5013422;28;20087;-65
2022/10/28 14:28:31;;;;;;;24.13;15.73;;;;;;;;;;5014100;28;20389;-66
2022/10/28 14:31:10;;;;;;;24.25;16.33;;;;;;;;;;5014450;28;20125;-66
2022/10/28 14:33:41;;;;;;;24.00;16.67;;;;;;;;;;5013488;28;20033;-66
2022/10/28 14:36:16;;;;;;;25.17;16.50;;;;;;;;;;5014145;28;20026;-65
2022/10/28 14:39:03;;;;;;;28.15;16.90;;;;;;;;;;5013778;28;20091;-67
2022/10/28 14:41:53;;;;;;;26.70;17.50;;;;;;;;;;5047943;28;20038;-65
2022/10/28 14:44:53;;;;;;;28.70;17.77;;;;;;;;;;5023958;28;20063;-69
2022/10/28 14:48:00;;;;;;;25.48;17.55;;;;;;;;;;5023752;28;20358;-66
2022/10/28 14:50:31;;;;;;;22.08;16.40;;;;;;;;;;4989765;28;20034;-66
2022/10/28 14:52:59;;;;;;;30.55;16.45;;;;;;;;;;4989831;28;20030;-67
2022/10/28 14:55:29;;;;;;;31.85;18.63;;;;;;;;;;5001316;28;20046;-67
2022/10/28 14:58:15;;;;;;;;;;;;;;;;;;5014273;28;20033;-68
2022/10/28 15:00:51;;;;;;;31.15;19.33;;;;;;;;;;5028292;28;19917;-67
2022/10/28 15:03:17;;;;;;;28.88;19.60;;;;;;;;;;5013487;28;20104;-67
2022/10/28 15:05:42;;;;;;;35.17;21.25;;;;;;;;;;5014761;28;20116;-68
2022/10/28 15:08:09;;;;;;;34.10;20.08;;;;;;;;;;5030349;28;20033;-65